sensor_id;sensor_type;location;lat;lon;timestamp;pressure;altitude;pressure_sealevel;temperature
78961;BMP280;68362;45.970;12.646;2023-03-04T11:37:37;101305.69;;;17.81
78961;BMP280;68362;45.970;12.646;2023-03-04T11:42:58;101300.81;;;22.31
78961;BMP280;68362;45.970;12.646;2023-03-04T11:51:10;101277.97;;;26.97
78961;BMP280;68362;45.970;12.646;2023-03-04T11:53:51;101262.94;;;29.61
78961;BMP280;68362;45.970;12.646;2023-03-04T12:26:38;101204.63;;;32.10
78961;BMP280;68362;45.970;12.646;2023-03-04T12:29:18;101209.34;;;30.15
78961;BMP280;68362;45.970;12.646;2023-03-04T12:31:45;101209.78;;;30.67
78961;BMP280;68362;45.970;12.646;2023-03-04T12:34:45;101196.16;;;31.51
78961;BMP280;68362;45.970;12.646;2023-03-04T12:39:49;101186.16;;;32.12
78961;BMP280;68362;45.970;12.646;2023-03-04T12:53:53;101166.84;;;29.27
78961;BMP280;68362;45.970;12.646;2023-03-04T12:59:14;101159.47;;;28.16
78961;BMP280;68362;45.970;12.646;2023-03-04T13:04:18;101156.00;;;31.04
78961;BMP280;68362;45.970;12.646;2023-03-04T13:09:32;101152.66;;;29.56
78961;BMP280;68362;45.970;12.646;2023-03-04T13:12:18;101138.66;;;29.71
78961;BMP280;68362;45.970;12.646;2023-03-04T13:17:51;101139.69;;;26.69
78961;BMP280;68362;45.970;12.646;2023-03-04T13:23:01;101133.84;;;25.98
78961;BMP280;68362;45.970;12.646;2023-03-04T13:25:33;101133.09;;;24.47
78961;BMP280;68362;45.970;12.646;2023-03-04T13:41:20;101117.91;;;24.66
78961;BMP280;68362;45.970;12.646;2023-03-04T13:43:51;101115.06;;;24.82
78961;BMP280;68362;45.970;12.646;2023-03-04T13:49:03;101095.72;;;27.59
78961;BMP280;68362;45.970;12.646;2023-03-04T13:51:39;101094.84;;;27.50
78961;BMP280;68362;45.970;12.646;2023-03-04T13:54:32;101094.81;;;28.12
78961;BMP280;68362;45.970;12.646;2023-03-04T13:59:33;101095.94;;;26.96
78961;BMP280;68362;45.970;12.646;2023-03-04T14:02:12;101088.69;;;26.46
78961;BMP280;68362;45.970;12.646;2023-03-04T14:04:44;101084.59;;;27.52
78961;BMP280;68362;45.970;12.646;2023-03-04T14:07:29;101084.13;;;25.92
78961;BMP280;68362;45.970;12.646;2023-03-04T14:09:57;101078.13;;;25.86
78961;BMP280;68362;45.970;12.646;2023-03-04T14:12:23;101082.31;;;24.90
78961;BMP280;68362;45.970;12.646;2023-03-04T14:14:52;101076.56;;;23.87
78961;BMP280;68362;45.970;12.646;2023-03-04T14:17:21;101073.88;;;24.16
78961;BMP280;68362;45.970;12.646;2023-03-04T14:19:49;101080.75;;;21.91
78961;BMP280;68362;45.970;12.646;2023-03-04T14:22:20;101071.56;;;21.10
78961;BMP280;68362;45.970;12.646;2023-03-04T14:24:59;101077.34;;;20.40
78961;BMP280;68362;45.970;12.646;2023-03-04T14:27:26;101073.97;;;19.80
78961;BMP280;68362;45.970;12.646;2023-03-04T14:30:00;101063.34;;;19.26
78961;BMP280;68362;45.970;12.646;2023-03-04T14:32:26;101058.50;;;19.18
78961;BMP280;68362;45.970;12.646;2023-03-04T14:35:06;101061.25;;;18.84
78961;BMP280;68362;45.970;12.646;2023-03-04T14:37:51;101054.22;;;18.35
78961;BMP280;68362;45.970;12.646;2023-03-04T14:40:25;101059.72;;;17.99
78961;BMP280;68362;45.970;12.646;2023-03-04T14:42:57;101054.22;;;17.72
78961;BMP280;68362;45.970;12.646;2023-03-04T14:45:26;101045.53;;;17.60
78961;BMP280;68362;45.970;12.646;2023-03-04T14:47:53;101037.84;;;17.59
78961;BMP280;68362;45.970;12.646;2023-03-04T14:50:20;101038.44;;;17.49
78961;BMP280;68362;45.970;12.646;2023-03-04T14:52:48;101035.56;;;17.22
78961;BMP280;68362;45.970;12.646;2023-03-04T14:55:26;101040.25;;;17.32
78961;BMP280;68362;45.970;12.646;2023-03-04T14:58:04;101030.41;;;17.15
78961;BMP280;68362;45.970;12.646;2023-03-04T15:00:34;101040.41;;;17.13
78961;BMP280;68362;45.970;12.646;2023-03-04T15:03:02;101036.88;;;17.08
78961;BMP280;68362;45.970;12.646;2023-03-04T15:05:35;101031.28;;;16.92
78961;BMP280;68362;45.970;12.646;2023-03-04T15:08:14;101030.00;;;16.95
78961;BMP280;68362;45.970;12.646;2023-03-04T15:10:56;101029.50;;;17.10
78961;BMP280;68362;45.970;12.646;2023-03-04T15:16:07;101025.97;;;17.04
78961;BMP280;68362;45.970;12.646;2023-03-04T15:18:32;101024.94;;;16.93
78961;BMP280;68362;45.970;12.646;2023-03-04T15:20:58;101023.59;;;16.79
78961;BMP280;68362;45.970;12.646;2023-03-04T15:23:26;101022.91;;;16.72
78961;BMP280;68362;45.970;12.646;2023-03-04T15:25:54;101020.03;;;16.74
78961;BMP280;68362;45.970;12.646;2023-03-04T15:28:20;101016.72;;;16.66
78961;BMP280;68362;45.970;12.646;2023-03-04T15:30:46;101012.50;;;16.65
78961;BMP280;68362;45.970;12.646;2023-03-04T15:33:12;101022.31;;;16.58
78961;BMP280;68362;45.970;12.646;2023-03-04T15:35:38;101019.81;;;16.63
78961;BMP280;68362;45.970;12.646;2023-03-04T15:38:07;101013.06;;;16.56
78961;BMP280;68362;45.970;12.646;2023-03-04T15:40:38;101014.66;;;16.45
78961;BMP280;68362;45.970;12.646;2023-03-04T15:43:05;101015.72;;;16.44
78961;BMP280;68362;45.970;12.646;2023-03-04T15:45:33;101010.66;;;16.54
78961;BMP280;68362;45.970;12.646;2023-03-04T15:48:08;101016.16;;;16.64
78961;BMP280;68362;45.970;12.646;2023-03-04T15:50:36;101011.44;;;16.43
78961;BMP280;68362;45.970;12.646;2023-03-04T15:53:06;101010.28;;;16.27
78961;BMP280;68362;45.970;12.646;2023-03-04T15:55:32;101003.50;;;16.20
78961;BMP280;68362;45.970;12.646;2023-03-04T15:57:59;101013.19;;;15.96
78961;BMP280;68362;45.970;12.646;2023-03-04T16:00:25;101015.25;;;15.94
78961;BMP280;68362;45.970;12.646;2023-03-04T16:02:51;101003.56;;;15.90
78961;BMP280;68362;45.970;12.646;2023-03-04T16:05:17;101007.28;;;15.82
78961;BMP280;68362;45.970;12.646;2023-03-04T16:07:47;101013.66;;;15.63
78961;BMP280;68362;45.970;12.646;2023-03-04T16:12:47;101010.28;;;15.55
78961;BMP280;68362;45.970;12.646;2023-03-04T16:15:19;101010.78;;;15.34
78961;BMP280;68362;45.970;12.646;2023-03-04T16:17:45;101014.56;;;15.20
78961;BMP280;68362;45.970;12.646;2023-03-04T16:20:19;101010.09;;;15.20
78961;BMP280;68362;45.970;12.646;2023-03-04T16:22:48;101008.28;;;15.02
78961;BMP280;68362;45.970;12.646;2023-03-04T16:25:14;101005.50;;;14.97
78961;BMP280;68362;45.970;12.646;2023-03-04T16:27:40;101008.06;;;14.86
78961;BMP280;68362;45.970;12.646;2023-03-04T16:30:20;101010.59;;;14.74
78961;BMP280;68362;45.970;12.646;2023-03-04T16:32:46;101012.91;;;14.64
78961;BMP280;68362;45.970;12.646;2023-03-04T16:35:13;101010.69;;;14.61
78961;BMP280;68362;45.970;12.646;2023-03-04T16:37:38;101009.97;;;14.54
78961;BMP280;68362;45.970;12.646;2023-03-04T16:40:05;101009.19;;;14.46
78961;BMP280;68362;45.970;12.646;2023-03-04T16:42:31;101011.28;;;14.38
78961;BMP280;68362;45.970;12.646;2023-03-04T16:44:56;101012.47;;;14.17
78961;BMP280;68362;45.970;12.646;2023-03-04T16:47:22;101016.97;;;14.10
78961;BMP280;68362;45.970;12.646;2023-03-04T16:49:47;101016.81;;;13.98
78961;BMP280;68362;45.970;12.646;2023-03-04T16:52:22;101011.22;;;13.81
78961;BMP280;68362;45.970;12.646;2023-03-04T16:54:49;101021.38;;;13.71
78961;BMP280;68362;45.970;12.646;2023-03-04T16:57:14;101017.78;;;13.59
78961;BMP280;68362;45.970;12.646;2023-03-04T16:59:40;101017.03;;;13.52
78961;BMP280;68362;45.970;12.646;2023-03-04T17:02:12;101014.59;;;13.43
78961;BMP280;68362;45.970;12.646;2023-03-04T17:04:38;101014.84;;;13.35
78961;BMP280;68362;45.970;12.646;2023-03-04T17:07:03;101013.84;;;13.23
78961;BMP280;68362;45.970;12.646;2023-03-04T17:09:28;101018.09;;;13.17
78961;BMP280;68362;45.970;12.646;2023-03-04T17:11:54;101020.75;;;13.04
78961;BMP280;68362;45.970;12.646;2023-03-04T17:14:21;101016.53;;;13.10
78961;BMP280;68362;45.970;12.646;2023-03-04T17:16:47;101026.81;;;13.05
78961;BMP280;68362;45.970;12.646;2023-03-04T17:19:12;101025.19;;;12.97
78961;BMP280;68362;45.970;12.646;2023-03-04T17:21:38;101026.41;;;12.95
78961;BMP280;68362;45.970;12.646;2023-03-04T17:24:03;101029.06;;;12.81
78961;BMP280;68362;45.970;12.646;2023-03-04T17:26:30;101023.19;;;12.79
78961;BMP280;68362;45.970;12.646;2023-03-04T17:28:55;101032.06;;;12.65
78961;BMP280;68362;45.970;12.646;2023-03-04T17:31:20;101021.75;;;12.50
78961;BMP280;68362;45.970;12.646;2023-03-04T17:33:46;101022.19;;;12.41
78961;BMP280;68362;45.970;12.646;2023-03-04T17:36:14;101027.59;;;12.32
78961;BMP280;68362;45.970;12.646;2023-03-04T17:38:40;101023.16;;;12.26
78961;BMP280;68362;45.970;12.646;2023-03-04T17:41:08;101034.81;;;12.17
78961;BMP280;68362;45.970;12.646;2023-03-04T17:43:34;101027.94;;;12.09
78961;BMP280;68362;45.970;12.646;2023-03-04T17:46:07;101033.97;;;12.10
78961;BMP280;68362;45.970;12.646;2023-03-04T17:48:34;101034.13;;;11.95
78961;BMP280;68362;45.970;12.646;2023-03-04T17:51:00;101038.38;;;11.90
78961;BMP280;68362;45.970;12.646;2023-03-04T17:53:25;101025.28;;;11.96
78961;BMP280;68362;45.970;12.646;2023-03-04T17:55:59;101037.94;;;11.93
78961;BMP280;68362;45.970;12.646;2023-03-04T17:58:26;101033.47;;;11.86
78961;BMP280;68362;45.970;12.646;2023-03-04T18:00:53;101037.09;;;11.79
78961;BMP280;68362;45.970;12.646;2023-03-04T18:03:20;101043.47;;;11.70
78961;BMP280;68362;45.970;12.646;2023-03-04T18:05:45;101039.84;;;11.71
78961;BMP280;68362;45.970;12.646;2023-03-04T18:08:11;101038.66;;;11.67
78961;BMP280;68362;45.970;12.646;2023-03-04T18:10:36;101036.19;;;11.65
78961;BMP280;68362;45.970;12.646;2023-03-04T18:13:02;101039.94;;;11.49
78961;BMP280;68362;45.970;12.646;2023-03-04T18:15:27;101040.25;;;11.40
78961;BMP280;68362;45.970;12.646;2023-03-04T18:17:53;101041.50;;;11.37
78961;BMP280;68362;45.970;12.646;2023-03-04T18:20:18;101038.63;;;11.32
78961;BMP280;68362;45.970;12.646;2023-03-04T18:22:44;101044.44;;;11.27
78961;BMP280;68362;45.970;12.646;2023-03-04T18:25:10;101044.75;;;11.18
78961;BMP280;68362;45.970;12.646;2023-03-04T18:27:40;101046.34;;;11.12
78961;BMP280;68362;45.970;12.646;2023-03-04T18:30:11;101048.22;;;10.97
78961;BMP280;68362;45.970;12.646;2023-03-04T18:32:37;101042.59;;;11.00
78961;BMP280;68362;45.970;12.646;2023-03-04T18:35:06;101048.91;;;11.05
78961;BMP280;68362;45.970;12.646;2023-03-04T18:37:31;101046.34;;;11.12
78961;BMP280;68362;45.970;12.646;2023-03-04T18:39:56;101051.28;;;11.07
78961;BMP280;68362;45.970;12.646;2023-03-04T18:42:22;101045.56;;;10.90
78961;BMP280;68362;45.970;12.646;2023-03-04T18:44:47;101042.28;;;10.81
78961;BMP280;68362;45.970;12.646;2023-03-04T18:47:13;101042.72;;;10.64
78961;BMP280;68362;45.970;12.646;2023-03-04T18:49:39;101044.09;;;10.45
78961;BMP280;68362;45.970;12.646;2023-03-04T18:52:05;101052.16;;;10.28
78961;BMP280;68362;45.970;12.646;2023-03-04T18:54:31;101057.28;;;10.22
78961;BMP280;68362;45.970;12.646;2023-03-04T18:56:59;101058.75;;;10.24
78961;BMP280;68362;45.970;12.646;2023-03-04T18:59:30;101058.22;;;10.14
78961;BMP280;68362;45.970;12.646;2023-03-04T19:01:58;101062.09;;;10.03
78961;BMP280;68362;45.970;12.646;2023-03-04T19:04:26;101066.66;;;10.16
78961;BMP280;68362;45.970;12.646;2023-03-04T19:06:52;101056.84;;;10.18
78961;BMP280;68362;45.970;12.646;2023-03-04T19:09:17;101055.44;;;10.16
78961;BMP280;68362;45.970;12.646;2023-03-04T19:11:43;101061.59;;;10.29
78961;BMP280;68362;45.970;12.646;2023-03-04T19:14:09;101060.06;;;10.35
78961;BMP280;68362;45.970;12.646;2023-03-04T19:16:36;101062.13;;;10.40
78961;BMP280;68362;45.970;12.646;2023-03-04T19:19:01;101063.22;;;10.30
